createdAt,value
2023-05-16T00:01:45.186Z,15.48
2023-05-16T00:04:12.458Z,20.95
2023-05-16T00:06:39.412Z,14.80
2023-05-16T00:09:06.204Z,20.00
2023-05-16T00:11:35.517Z,14.98
2023-05-16T00:14:02.824Z,12.30
2023-05-16T00:16:30.330Z,16.33
2023-05-16T00:19:01.262Z,10.30
2023-05-16T00:21:28.392Z,12.40
2023-05-16T00:23:55.254Z,17.60
2023-05-16T00:26:26.851Z,10.43
2023-05-16T00:28:53.824Z,11.65
2023-05-16T00:31:20.923Z,8.82
2023-05-16T00:33:47.691Z,9.57
2023-05-16T00:36:14.494Z,12.23
2023-05-16T00:38:41.512Z,18.52
2023-05-16T00:41:08.382Z,13.05
2023-05-16T00:43:35.563Z,15.75
2023-05-16T00:46:02.561Z,17.38
2023-05-16T00:48:29.769Z,18.50
2023-05-16T00:50:59.228Z,16.15
2023-05-16T00:53:27.005Z,10.80
2023-05-16T00:55:53.923Z,15.27
2023-05-16T00:58:26.173Z,13.52
2023-05-16T01:00:53.467Z,15.98
2023-05-16T01:03:23.137Z,13.52
2023-05-16T01:05:52.946Z,11.13
2023-05-16T01:08:20.709Z,20.00
2023-05-16T01:11:01.200Z,13.60
2023-05-16T01:13:36.994Z,11.93
2023-05-16T01:16:25.627Z,13.80
2023-05-16T01:19:06.320Z,10.65
2023-05-16T01:22:05.835Z,15.85
2023-05-16T01:25:00.328Z,17.02
2023-05-16T01:27:35.442Z,15.55
2023-05-16T01:30:14.161Z,10.90
2023-05-16T01:32:41.064Z,17.63
2023-05-16T01:35:14.478Z,15.50
2023-05-16T01:38:04.416Z,9.70
2023-05-16T01:40:48.119Z,12.35
2023-05-16T01:43:21.000Z,12.35
2023-05-16T01:46:04.432Z,13.85
2023-05-16T01:48:42.250Z,16.27
2023-05-16T01:51:10.613Z,13.82
2023-05-16T01:53:42.588Z,11.32
2023-05-16T01:56:15.618Z,14.70
2023-05-16T01:58:43.642Z,9.07
2023-05-16T02:01:13.563Z,10.40
2023-05-16T02:03:40.546Z,11.48
2023-05-16T02:06:07.796Z,9.48
2023-05-16T02:08:39.359Z,10.70
2023-05-16T02:11:06.332Z,9.18
2023-05-16T02:13:33.135Z,11.93
2023-05-16T02:15:59.896Z,16.45
2023-05-16T02:18:28.362Z,17.88
2023-05-16T02:20:55.124Z,11.20
2023-05-16T02:23:22.022Z,7.85
2023-05-16T02:25:49.265Z,12.98
2023-05-16T02:28:15.988Z,13.50
2023-05-16T02:30:42.694Z,16.83
2023-05-16T02:33:10.767Z,10.73
2023-05-16T02:35:37.630Z,10.43
2023-05-16T02:38:04.361Z,13.82
2023-05-16T02:40:31.737Z,9.35
2023-05-16T02:42:58.631Z,11.82
2023-05-16T02:45:25.704Z,21.15
2023-05-16T02:47:52.702Z,12.02
2023-05-16T02:50:19.690Z,11.30
2023-05-16T02:52:47.356Z,12.90
2023-05-16T02:55:21.668Z,10.32
2023-05-16T02:57:50.788Z,13.55
2023-05-16T03:00:18.924Z,12.15
2023-05-16T03:02:45.815Z,11.10
2023-05-16T03:05:13.062Z,10.07
2023-05-16T03:07:39.899Z,13.77
2023-05-16T03:10:07.514Z,11.65
2023-05-16T03:12:36.792Z,13.45
2023-05-16T03:15:04.279Z,15.25
2023-05-16T03:17:31.390Z,7.18
2023-05-16T03:20:00.436Z,12.73
2023-05-16T03:22:27.339Z,11.73
2023-05-16T03:24:54.351Z,10.30
2023-05-16T03:27:23.736Z,9.00
2023-05-16T03:29:50.677Z,13.13
2023-05-16T03:32:19.932Z,10.20
2023-05-16T03:34:46.939Z,15.73
2023-05-16T03:37:16.628Z,5.97
2023-05-16T03:39:43.598Z,16.42
2023-05-16T03:42:10.345Z,12.82
2023-05-16T03:44:37.466Z,14.70
2023-05-16T03:47:06.881Z,15.38
2023-05-16T03:49:39.602Z,12.82
2023-05-16T03:52:07.072Z,11.70
2023-05-16T03:54:34.097Z,12.40
2023-05-16T03:57:03.144Z,15.15
2023-05-16T03:59:30.051Z,14.50
2023-05-16T04:01:59.387Z,13.85
2023-05-16T04:04:26.744Z,18.98
2023-05-16T04:06:53.588Z,7.50
2023-05-16T04:09:20.424Z,15.00
2023-05-16T04:11:49.542Z,16.92
2023-05-16T04:14:16.710Z,12.77
2023-05-16T04:16:43.742Z,13.05
2023-05-16T04:19:10.630Z,16.83
2023-05-16T04:21:40.418Z,9.63
2023-05-16T04:24:08.368Z,17.38
2023-05-16T04:26:36.560Z,13.05
2023-05-16T04:29:03.741Z,14.30
2023-05-16T04:31:31.194Z,13.23
2023-05-16T04:34:00.139Z,11.60
2023-05-16T04:36:30.208Z,12.00
2023-05-16T04:38:59.416Z,20.92
2023-05-16T04:41:25.976Z,12.57
2023-05-16T04:43:53.758Z,8.93
2023-05-16T04:46:22.616Z,11.00
2023-05-16T04:48:49.330Z,13.13
2023-05-16T04:51:16.083Z,12.90
2023-05-16T04:53:42.655Z,11.70
2023-05-16T04:56:09.232Z,13.25
2023-05-16T04:58:38.758Z,11.75
2023-05-16T05:01:06.378Z,12.32
2023-05-16T05:03:34.251Z,7.75
2023-05-16T05:06:01.902Z,6.18
2023-05-16T05:08:28.517Z,11.20
2023-05-16T05:10:56.695Z,12.52
2023-05-16T05:13:24.080Z,12.27
2023-05-16T05:15:52.370Z,13.60
2023-05-16T05:18:19.198Z,8.40
2023-05-16T05:20:46.029Z,8.90
2023-05-16T05:23:13.387Z,11.27
2023-05-16T05:25:40.940Z,11.65
2023-05-16T05:28:07.669Z,12.68
2023-05-16T05:30:36.593Z,11.13
2023-05-16T05:33:03.458Z,12.45
2023-05-16T05:35:30.378Z,9.18
2023-05-16T05:37:57.174Z,10.73
2023-05-16T05:40:24.032Z,9.52
2023-05-16T05:42:52.881Z,9.40
2023-05-16T05:45:19.606Z,8.65
2023-05-16T05:47:48.474Z,10.18
2023-05-16T05:50:17.857Z,11.38
2023-05-16T05:52:44.528Z,10.20
2023-05-16T05:55:13.817Z,8.95
2023-05-16T05:57:40.436Z,10.65
2023-05-16T06:00:10.432Z,8.63
2023-05-16T06:02:37.378Z,10.70
2023-05-16T06:05:04.382Z,10.43
2023-05-16T06:07:33.654Z,9.60
2023-05-16T06:10:05.123Z,9.93
2023-05-16T06:12:32.154Z,9.63
2023-05-16T06:14:58.816Z,15.00
2023-05-16T06:17:25.651Z,10.32
2023-05-16T06:19:52.831Z,7.32
2023-05-16T06:22:19.368Z,9.18
2023-05-16T06:24:45.944Z,8.70
2023-05-16T06:27:12.741Z,6.38
2023-05-16T06:29:39.732Z,8.73
2023-05-16T06:32:06.834Z,12.55
2023-05-16T06:34:33.439Z,9.40
2023-05-16T06:37:00.147Z,8.95
2023-05-16T06:39:29.033Z,6.95
2023-05-16T06:41:56.733Z,10.35
2023-05-16T06:44:24.203Z,9.40
2023-05-16T06:46:51.370Z,9.13
2023-05-16T06:49:18.505Z,10.70
2023-05-16T06:51:45.440Z,7.22
2023-05-16T06:54:12.421Z,10.23
2023-05-16T06:56:39.094Z,12.27
2023-05-16T06:59:05.795Z,9.40
2023-05-16T07:01:32.548Z,8.75
2023-05-16T07:03:59.364Z,5.35
2023-05-16T07:06:35.132Z,5.78
2023-05-16T07:09:02.350Z,5.18
2023-05-16T07:11:28.981Z,7.65
2023-05-16T07:13:58.677Z,8.90
2023-05-16T07:16:28.600Z,6.07
2023-05-16T07:19:02.486Z,9.05
2023-05-16T07:21:29.348Z,3.38
2023-05-16T07:23:58.229Z,8.38
2023-05-16T07:26:27.215Z,7.53
2023-05-16T07:28:53.858Z,7.13
2023-05-16T07:31:20.969Z,3.08
2023-05-16T07:33:47.583Z,10.00
2023-05-16T07:36:17.539Z,5.93
2023-05-16T07:38:45.134Z,9.00
2023-05-16T07:41:11.985Z,11.07
2023-05-16T07:43:38.655Z,4.93
2023-05-16T07:46:07.588Z,7.93
2023-05-16T07:48:36.666Z,5.63
2023-05-16T07:51:03.417Z,6.18
2023-05-16T07:53:30.021Z,7.68
2023-05-16T07:55:57.123Z,8.32
2023-05-16T07:58:26.199Z,8.80
2023-05-16T08:00:52.867Z,5.80
2023-05-16T08:03:22.389Z,5.28
2023-05-16T08:05:49.387Z,7.25
2023-05-16T08:08:16.227Z,6.80
2023-05-16T08:10:42.917Z,5.65
2023-05-16T08:13:11.935Z,6.43
2023-05-16T08:15:38.636Z,6.78
2023-05-16T08:18:13.648Z,4.10
2023-05-16T08:20:41.784Z,5.82
2023-05-16T08:23:09.423Z,4.97
2023-05-16T08:25:36.184Z,3.42
2023-05-16T08:28:05.753Z,9.25
2023-05-16T08:30:34.937Z,6.47
2023-05-16T08:33:04.966Z,4.95
2023-05-16T08:35:32.581Z,5.72
2023-05-16T08:37:59.358Z,3.13
2023-05-16T08:40:29.345Z,4.47
2023-05-16T08:42:56.607Z,4.85
2023-05-16T08:45:24.115Z,9.30
2023-05-16T08:47:58.267Z,5.53
2023-05-16T08:50:25.869Z,10.45
2023-05-16T08:52:54.154Z,6.97
2023-05-16T08:55:22.309Z,8.57
2023-05-16T08:57:54.891Z,6.72
2023-05-16T09:00:22.693Z,8.77
2023-05-16T09:02:50.385Z,6.22
2023-05-16T09:05:18.171Z,7.13
2023-05-16T09:07:46.160Z,4.72
2023-05-16T09:10:13.632Z,7.95
2023-05-16T09:12:44.027Z,3.30
2023-05-16T09:15:11.564Z,3.50
2023-05-16T09:17:46.835Z,6.78
2023-05-16T09:20:15.571Z,4.28
2023-05-16T09:22:52.843Z,2.35
2023-05-16T09:25:29.479Z,5.45
2023-05-16T09:28:00.104Z,3.67
2023-05-16T09:30:34.748Z,8.48
2023-05-16T09:33:02.014Z,5.00
2023-05-16T09:37:58.677Z,6.07
2023-05-16T09:40:25.576Z,5.97
2023-05-16T09:43:09.638Z,6.35
2023-05-16T09:45:37.054Z,3.17
2023-05-16T09:48:07.865Z,8.48
2023-05-16T09:50:36.995Z,7.63
2023-05-16T09:53:04.214Z,5.15
2023-05-16T09:55:31.527Z,3.63
2023-05-16T09:58:00.987Z,5.90
2023-05-16T10:00:32.454Z,4.70
2023-05-16T10:03:03.460Z,4.80
2023-05-16T10:05:31.993Z,7.55
2023-05-16T10:07:58.832Z,6.15
2023-05-16T10:10:26.748Z,4.18
2023-05-16T10:12:58.880Z,5.10
2023-05-16T10:15:26.512Z,5.22
2023-05-16T10:17:56.748Z,2.85
2023-05-16T10:20:23.825Z,6.38
2023-05-16T10:22:55.288Z,7.03
2023-05-16T10:25:29.472Z,11.68
2023-05-16T10:27:56.830Z,8.45
2023-05-16T10:30:23.523Z,6.90
2023-05-16T10:32:52.003Z,4.68
2023-05-16T10:35:20.179Z,8.10
2023-05-16T10:37:50.341Z,5.82
2023-05-16T10:40:17.574Z,2.83
2023-05-16T10:42:56.943Z,8.00
2023-05-16T10:45:24.014Z,4.43
2023-05-16T10:48:04.846Z,5.35
2023-05-16T10:50:52.733Z,5.20
2023-05-16T10:53:20.846Z,3.70
2023-05-16T10:55:59.550Z,6.25
2023-05-16T10:58:35.772Z,8.57
2023-05-16T11:01:17.931Z,4.03
2023-05-16T11:04:07.078Z,6.38
2023-05-16T11:06:42.739Z,2.05
2023-05-16T11:09:13.942Z,4.95
2023-05-16T11:11:46.313Z,6.35
2023-05-16T11:14:25.789Z,6.38
2023-05-16T11:17:17.856Z,3.95
2023-05-16T11:19:52.324Z,6.43
2023-05-16T11:22:19.008Z,7.68
2023-05-16T11:24:57.709Z,6.32
2023-05-16T11:27:27.026Z,3.40
2023-05-16T11:30:04.343Z,9.10
2023-05-16T11:32:35.659Z,7.63
2023-05-16T11:35:03.954Z,4.78
2023-05-16T11:37:31.296Z,6.63
2023-05-16T11:40:02.639Z,4.05
2023-05-16T11:42:38.155Z,6.95
2023-05-16T11:45:08.804Z,2.80
2023-05-16T11:47:40.657Z,5.10
2023-05-16T11:50:11.777Z,4.43
2023-05-16T11:52:38.698Z,5.18
2023-05-16T11:55:06.998Z,10.93
2023-05-16T11:57:34.109Z,6.63
2023-05-16T12:00:27.875Z,8.07
2023-05-16T12:03:01.413Z,5.15
2023-05-16T12:05:30.819Z,7.47
2023-05-16T12:07:59.811Z,4.45
2023-05-16T12:10:29.559Z,7.97
2023-05-16T12:12:56.722Z,6.40
2023-05-16T12:15:23.448Z,3.03
2023-05-16T12:17:50.986Z,19.80
2023-05-16T12:20:20.686Z,9.25
2023-05-16T12:22:50.456Z,7.32
2023-05-16T12:25:37.824Z,7.05
2023-05-16T12:28:05.279Z,9.80
2023-05-16T12:30:33.026Z,6.03
2023-05-16T12:33:13.823Z,6.50
2023-05-16T12:35:42.800Z,5.07
2023-05-16T12:38:13.131Z,5.75
2023-05-16T12:40:41.675Z,4.72
2023-05-16T12:43:25.555Z,7.97
2023-05-16T12:45:52.883Z,5.22
2023-05-16T12:48:20.273Z,8.48
2023-05-16T12:50:47.122Z,6.47
2023-05-16T12:53:20.072Z,6.30
2023-05-16T12:55:47.059Z,4.55
2023-05-16T12:58:17.652Z,5.88
2023-05-16T13:00:44.431Z,3.35
2023-05-16T13:03:12.348Z,7.22
2023-05-16T13:05:39.287Z,3.83
2023-05-16T13:08:06.341Z,4.95
2023-05-16T13:10:36.184Z,3.30
2023-05-16T13:13:04.832Z,6.10
2023-05-16T13:15:31.811Z,8.45
2023-05-16T13:18:00.923Z,9.27
2023-05-16T13:20:28.185Z,17.55
2023-05-16T13:22:55.802Z,3.80
2023-05-16T13:25:22.447Z,5.15
2023-05-16T13:27:51.500Z,4.43
2023-05-16T13:30:18.199Z,3.13
2023-05-16T13:32:47.142Z,4.28
2023-05-16T13:35:13.774Z,5.18
2023-05-16T13:37:41.557Z,9.75
2023-05-16T13:40:11.629Z,3.75
2023-05-16T13:42:41.171Z,3.45
2023-05-16T13:45:08.177Z,6.88
2023-05-16T13:47:37.558Z,5.78
2023-05-16T13:50:10.425Z,3.63
2023-05-16T13:52:38.514Z,6.90
2023-05-16T13:55:08.061Z,11.85
2023-05-16T13:57:35.000Z,7.25
2023-05-16T14:02:31.679Z,7.97
2023-05-16T14:04:58.416Z,7.72
2023-05-16T14:07:25.145Z,2.47
2023-05-16T14:09:51.821Z,3.60
2023-05-16T14:12:20.796Z,3.17
2023-05-16T14:14:47.410Z,4.00
2023-05-16T14:17:14.049Z,6.20
2023-05-16T14:19:40.754Z,6.88
2023-05-16T14:22:08.164Z,5.50
2023-05-16T14:24:34.929Z,8.23
2023-05-16T14:27:01.882Z,7.68
2023-05-16T14:29:28.612Z,7.95
2023-05-16T14:31:55.526Z,4.65
2023-05-16T14:34:23.743Z,5.10
2023-05-16T14:36:51.160Z,4.30
2023-05-16T14:39:20.411Z,6.15
2023-05-16T14:41:49.602Z,6.50
2023-05-16T14:44:19.470Z,5.88
2023-05-16T14:46:46.906Z,5.35
2023-05-16T14:49:14.007Z,5.90
2023-05-16T14:51:40.635Z,7.90
2023-05-16T14:54:07.592Z,4.13
2023-05-16T14:56:34.238Z,2.90
2023-05-16T14:59:03.141Z,5.32
2023-05-16T15:01:29.796Z,4.93
2023-05-16T15:03:58.873Z,5.40
2023-05-16T15:06:25.492Z,12.70
2023-05-16T15:08:52.471Z,4.63
2023-05-16T15:11:19.703Z,4.85
2023-05-16T15:13:46.438Z,5.88
2023-05-16T15:16:13.157Z,7.13
2023-05-16T15:18:40.508Z,7.68
2023-05-16T15:21:07.239Z,3.08
2023-05-16T15:23:33.985Z,2.80
2023-05-16T15:26:00.774Z,3.30
2023-05-16T15:28:32.141Z,5.72
2023-05-16T15:30:58.825Z,6.20
2023-05-16T15:33:25.521Z,2.65
2023-05-16T15:35:52.132Z,6.15
2023-05-16T15:38:20.965Z,5.28
2023-05-16T15:40:50.802Z,3.97
2023-05-16T15:43:24.640Z,12.85
2023-05-16T15:45:51.328Z,3.15
2023-05-16T15:48:18.021Z,2.63
2023-05-16T15:50:47.119Z,3.70
2023-05-16T15:53:14.058Z,4.30
2023-05-16T15:55:40.989Z,5.28
2023-05-16T15:58:07.822Z,3.65
2023-05-16T16:00:34.504Z,3.05
2023-05-16T16:03:01.669Z,4.53
2023-05-16T16:05:28.628Z,5.45
2023-05-16T16:07:55.481Z,4.05
2023-05-16T16:10:22.774Z,5.10
2023-05-16T16:13:07.394Z,3.75
2023-05-16T16:15:36.744Z,5.45
2023-05-16T16:18:03.793Z,6.13
2023-05-16T16:20:30.896Z,2.28
2023-05-16T16:22:57.767Z,4.93
2023-05-16T16:25:24.636Z,1.55
2023-05-16T16:27:54.590Z,5.45
2023-05-16T16:30:21.159Z,6.45
2023-05-16T16:32:48.962Z,6.00
2023-05-16T16:35:15.916Z,2.72
2023-05-16T16:37:48.765Z,3.03
2023-05-16T16:40:22.010Z,3.90
2023-05-16T16:42:48.634Z,5.35
2023-05-16T16:45:17.709Z,3.50
2023-05-16T16:47:46.993Z,2.42
2023-05-16T16:50:13.667Z,2.95
2023-05-16T16:52:43.304Z,4.30
2023-05-16T16:55:10.051Z,2.53
2023-05-16T16:57:36.941Z,4.22
2023-05-16T17:00:04.082Z,4.47
2023-05-16T17:02:30.932Z,3.60
2023-05-16T17:04:59.826Z,3.88
2023-05-16T17:07:29.007Z,3.28
2023-05-16T17:09:56.396Z,7.43
2023-05-16T17:12:23.064Z,2.80
2023-05-16T17:14:51.479Z,7.93
2023-05-16T17:17:18.948Z,3.75
2023-05-16T17:19:47.033Z,6.03
2023-05-16T17:22:16.718Z,3.55
2023-05-16T17:24:45.767Z,6.50
2023-05-16T17:27:14.752Z,4.75
2023-05-16T17:29:44.086Z,3.28
2023-05-16T17:32:11.632Z,3.95
2023-05-16T17:34:43.140Z,4.45
2023-05-16T17:37:10.640Z,5.63
2023-05-16T17:39:37.375Z,8.02
2023-05-16T17:42:05.659Z,5.70
2023-05-16T17:44:34.732Z,4.55
2023-05-16T17:47:01.423Z,4.43
2023-05-16T17:49:28.009Z,3.35
2023-05-16T17:51:56.829Z,2.97
2023-05-16T17:54:27.276Z,3.10
2023-05-16T17:56:54.717Z,1.92
2023-05-16T17:59:21.736Z,8.43
2023-05-16T18:01:49.060Z,5.50
2023-05-16T18:04:15.877Z,4.70
2023-05-16T18:06:46.199Z,5.85
2023-05-16T18:09:15.141Z,6.25
2023-05-16T18:11:42.709Z,6.63
2023-05-16T18:14:14.130Z,5.22
2023-05-16T18:16:40.905Z,8.07
2023-05-16T18:19:08.799Z,5.05
2023-05-16T18:21:36.482Z,6.43
2023-05-16T18:24:03.375Z,5.13
2023-05-16T18:26:30.343Z,6.80
2023-05-16T18:28:58.247Z,5.88
2023-05-16T18:31:24.955Z,5.05
2023-05-16T18:33:51.905Z,8.73
2023-05-16T18:36:20.960Z,6.35
2023-05-16T18:38:47.924Z,5.65
2023-05-16T18:41:15.534Z,6.97
2023-05-16T18:43:43.685Z,7.38
2023-05-16T18:46:13.282Z,5.93
2023-05-16T18:48:40.031Z,5.63
2023-05-16T18:51:06.791Z,6.13
2023-05-16T18:53:33.576Z,10.32
2023-05-16T18:56:02.589Z,12.50
2023-05-16T18:58:31.483Z,6.93
2023-05-16T19:01:04.095Z,8.45
2023-05-16T19:03:33.471Z,6.20
2023-05-16T19:06:00.366Z,9.30
2023-05-16T19:08:31.238Z,8.02
2023-05-16T19:11:03.668Z,6.20
2023-05-16T19:13:32.379Z,6.72
2023-05-16T19:16:02.141Z,7.20
2023-05-16T19:18:29.405Z,6.18
2023-05-16T19:20:56.134Z,8.32
2023-05-16T19:23:27.626Z,7.80
2023-05-16T19:25:54.732Z,15.38
2023-05-16T19:28:21.402Z,9.32
2023-05-16T19:30:48.416Z,4.18
2023-05-16T19:33:15.475Z,7.47
2023-05-16T19:35:42.144Z,3.72
2023-05-16T19:38:08.892Z,4.78
2023-05-16T19:40:35.656Z,6.53
2023-05-16T19:43:04.782Z,10.95
2023-05-16T19:45:33.548Z,7.82
2023-05-16T19:48:02.709Z,6.10
2023-05-16T19:50:29.525Z,10.50
2023-05-16T19:52:58.507Z,8.10
2023-05-16T19:55:27.382Z,6.75
2023-05-16T19:57:55.635Z,11.18
2023-05-16T20:00:25.168Z,5.85
2023-05-16T20:02:52.747Z,8.02
2023-05-16T20:05:25.521Z,11.25
2023-05-16T20:07:58.143Z,6.50
2023-05-16T20:10:25.019Z,6.90
2023-05-16T20:12:51.883Z,5.45
2023-05-16T20:15:21.316Z,8.30
2023-05-16T20:17:48.172Z,10.10
2023-05-16T20:20:17.455Z,9.07
2023-05-16T20:22:44.380Z,9.90
2023-05-16T20:25:12.088Z,8.85
2023-05-16T20:27:39.291Z,11.25
2023-05-16T20:30:07.436Z,7.40
2023-05-16T20:32:36.780Z,8.48
2023-05-16T20:35:05.065Z,10.05
2023-05-16T20:37:34.140Z,8.05
2023-05-16T20:40:03.519Z,12.15
2023-05-16T20:42:30.521Z,11.55
2023-05-16T20:44:57.263Z,9.57
2023-05-16T20:47:24.128Z,10.35
2023-05-16T20:49:50.919Z,7.03
2023-05-16T20:52:18.043Z,10.07
2023-05-16T20:54:48.630Z,7.25
2023-05-16T20:57:16.269Z,9.30
2023-05-16T20:59:43.006Z,13.13
2023-05-16T21:02:12.788Z,8.13
2023-05-16T21:04:42.044Z,9.57
2023-05-16T21:07:11.412Z,11.80
2023-05-16T21:09:41.455Z,7.85
2023-05-16T21:12:08.513Z,6.95
2023-05-16T21:14:35.254Z,10.98
2023-05-16T21:17:04.312Z,9.00
2023-05-16T21:19:35.046Z,12.18
2023-05-16T21:22:04.271Z,7.00
2023-05-16T21:24:35.382Z,12.93
2023-05-16T21:27:03.901Z,13.32
2023-05-16T21:29:31.311Z,14.48
2023-05-16T21:31:58.783Z,8.43
2023-05-16T21:34:28.850Z,11.48
2023-05-16T21:36:58.766Z,10.93
2023-05-16T21:39:25.789Z,6.00
2023-05-16T21:41:52.551Z,13.73
2023-05-16T21:44:19.565Z,13.55
2023-05-16T21:46:46.615Z,9.15
2023-05-16T21:49:16.056Z,11.13
2023-05-16T21:51:42.901Z,12.10
2023-05-16T21:54:09.783Z,10.50
2023-05-16T21:56:36.742Z,8.68
2023-05-16T21:59:03.724Z,12.68
2023-05-16T22:01:30.621Z,8.27
2023-05-16T22:03:57.826Z,7.20
2023-05-16T22:06:25.261Z,10.88
2023-05-16T22:08:52.408Z,12.85
2023-05-16T22:11:22.335Z,7.57
2023-05-16T22:13:51.517Z,8.90
2023-05-16T22:16:20.577Z,12.10
2023-05-16T22:18:47.805Z,13.88
2023-05-16T22:21:16.303Z,20.92
2023-05-16T22:23:43.103Z,14.13
2023-05-16T22:26:09.957Z,11.05
2023-05-16T22:28:36.672Z,12.60
2023-05-16T22:31:03.383Z,15.52
2023-05-16T22:33:30.228Z,11.85
2023-05-16T22:35:59.510Z,17.15
2023-05-16T22:38:26.364Z,11.50
2023-05-16T22:40:58.330Z,14.73
2023-05-16T22:43:25.122Z,11.82
2023-05-16T22:45:54.572Z,8.80
2023-05-16T22:48:21.534Z,9.35
2023-05-16T22:50:48.273Z,14.10
2023-05-16T22:53:15.070Z,12.63
2023-05-16T22:55:44.293Z,7.82
2023-05-16T22:58:10.999Z,8.95
2023-05-16T23:00:37.755Z,16.42
2023-05-16T23:03:04.648Z,11.00
2023-05-16T23:05:36.328Z,15.95
2023-05-16T23:08:04.414Z,15.38
2023-05-16T23:10:32.400Z,14.95
2023-05-16T23:13:01.771Z,12.02
2023-05-16T23:15:28.766Z,14.43
2023-05-16T23:17:56.449Z,15.95
2023-05-16T23:20:23.449Z,13.13
2023-05-16T23:22:50.461Z,13.40
2023-05-16T23:25:17.575Z,19.27
2023-05-16T23:27:44.420Z,11.65
2023-05-16T23:30:12.173Z,16.10
2023-05-16T23:32:39.030Z,14.27
2023-05-16T23:35:06.413Z,10.98
2023-05-16T23:37:36.113Z,14.48
2023-05-16T23:40:03.000Z,17.35
2023-05-16T23:42:29.902Z,13.45
2023-05-16T23:44:59.104Z,13.05
2023-05-16T23:47:26.810Z,11.80
2023-05-16T23:49:53.655Z,18.10
2023-05-16T23:52:20.711Z,21.80
2023-05-16T23:54:47.753Z,13.73
2023-05-16T23:57:16.967Z,12.65
2023-05-16T23:59:43.676Z,19.65
